sensor_id;sensor_type;location;lat;lon;timestamp;P1;durP1;ratioP1;P2;durP2;ratioP2
65998;SDS011;52766;56.008;37.440;2023-12-20T00:00:57;1.60;;;0.90;;
65998;SDS011;52766;56.008;37.440;2023-12-20T00:03:23;2.42;;;1.02;;
65998;SDS011;52766;56.008;37.440;2023-12-20T00:05:49;2.45;;;1.15;;
65998;SDS011;52766;56.008;37.440;2023-12-20T00:08:16;1.65;;;0.88;;
65998;SDS011;52766;56.008;37.440;2023-12-20T00:10:45;2.22;;;1.10;;
65998;SDS011;52766;56.008;37.440;2023-12-20T00:13:11;1.88;;;1.20;;
65998;SDS011;52766;56.008;37.440;2023-12-20T00:15:37;2.22;;;1.00;;
65998;SDS011;52766;56.008;37.440;2023-12-20T00:18:03;1.88;;;0.90;;
65998;SDS011;52766;56.008;37.440;2023-12-20T00:20:29;3.28;;;1.10;;
65998;SDS011;52766;56.008;37.440;2023-12-20T00:22:56;2.42;;;1.40;;
65998;SDS011;52766;56.008;37.440;2023-12-20T00:25:26;2.55;;;1.30;;
65998;SDS011;52766;56.008;37.440;2023-12-20T00:27:52;3.08;;;1.35;;
65998;SDS011;52766;56.008;37.440;2023-12-20T00:30:18;3.00;;;1.45;;
65998;SDS011;52766;56.008;37.440;2023-12-20T00:32:45;1.90;;;1.20;;
65998;SDS011;52766;56.008;37.440;2023-12-20T00:35:14;2.83;;;1.08;;
65998;SDS011;52766;56.008;37.440;2023-12-20T00:37:40;1.58;;;1.05;;
65998;SDS011;52766;56.008;37.440;2023-12-20T00:40:06;0.93;;;0.68;;
65998;SDS011;52766;56.008;37.440;2023-12-20T00:42:33;1.85;;;1.23;;
65998;SDS011;52766;56.008;37.440;2023-12-20T00:44:59;2.05;;;1.00;;
65998;SDS011;52766;56.008;37.440;2023-12-20T00:47:25;2.33;;;1.23;;
65998;SDS011;52766;56.008;37.440;2023-12-20T00:49:52;0.95;;;0.73;;
65998;SDS011;52766;56.008;37.440;2023-12-20T00:52:18;1.42;;;0.90;;
65998;SDS011;52766;56.008;37.440;2023-12-20T00:54:44;1.05;;;0.65;;
65998;SDS011;52766;56.008;37.440;2023-12-20T00:57:10;2.53;;;1.00;;
65998;SDS011;52766;56.008;37.440;2023-12-20T00:59:36;1.67;;;0.80;;
65998;SDS011;52766;56.008;37.440;2023-12-20T01:02:02;2.00;;;0.88;;
65998;SDS011;52766;56.008;37.440;2023-12-20T01:04:28;0.65;;;0.60;;
65998;SDS011;52766;56.008;37.440;2023-12-20T01:06:53;1.23;;;0.85;;
65998;SDS011;52766;56.008;37.440;2023-12-20T01:09:19;1.67;;;0.70;;
65998;SDS011;52766;56.008;37.440;2023-12-20T01:11:49;3.80;;;1.30;;
65998;SDS011;52766;56.008;37.440;2023-12-20T01:14:14;1.58;;;1.00;;
65998;SDS011;52766;56.008;37.440;2023-12-20T01:16:40;2.67;;;0.85;;
65998;SDS011;52766;56.008;37.440;2023-12-20T01:19:06;2.25;;;0.90;;
65998;SDS011;52766;56.008;37.440;2023-12-20T01:21:33;2.83;;;0.95;;
65998;SDS011;52766;56.008;37.440;2023-12-20T01:23:58;2.28;;;0.85;;
65998;SDS011;52766;56.008;37.440;2023-12-20T01:26:24;3.70;;;0.93;;
65998;SDS011;52766;56.008;37.440;2023-12-20T01:28:50;2.35;;;1.15;;
65998;SDS011;52766;56.008;37.440;2023-12-20T01:31:16;1.67;;;0.95;;
65998;SDS011;52766;56.008;37.440;2023-12-20T01:33:42;2.67;;;1.00;;
65998;SDS011;52766;56.008;37.440;2023-12-20T01:36:08;1.95;;;1.00;;
65998;SDS011;52766;56.008;37.440;2023-12-20T01:38:34;3.10;;;1.05;;
65998;SDS011;52766;56.008;37.440;2023-12-20T01:41:00;1.95;;;0.98;;
65998;SDS011;52766;56.008;37.440;2023-12-20T01:43:26;3.42;;;1.10;;
65998;SDS011;52766;56.008;37.440;2023-12-20T01:45:52;3.55;;;1.50;;
65998;SDS011;52766;56.008;37.440;2023-12-20T01:48:18;3.47;;;1.30;;
65998;SDS011;52766;56.008;37.440;2023-12-20T01:50:45;3.30;;;1.30;;
65998;SDS011;52766;56.008;37.440;2023-12-20T01:53:11;3.55;;;1.23;;
65998;SDS011;52766;56.008;37.440;2023-12-20T01:55:39;4.57;;;1.45;;
65998;SDS011;52766;56.008;37.440;2023-12-20T01:58:08;4.47;;;1.60;;
65998;SDS011;52766;56.008;37.440;2023-12-20T02:00:34;1.70;;;0.88;;
65998;SDS011;52766;56.008;37.440;2023-12-20T02:03:01;1.45;;;1.30;;
65998;SDS011;52766;56.008;37.440;2023-12-20T02:05:32;3.40;;;1.30;;
65998;SDS011;52766;56.008;37.440;2023-12-20T02:07:59;2.35;;;1.00;;
65998;SDS011;52766;56.008;37.440;2023-12-20T02:10:25;3.47;;;1.27;;
65998;SDS011;52766;56.008;37.440;2023-12-20T02:12:51;3.13;;;1.33;;
65998;SDS011;52766;56.008;37.440;2023-12-20T02:15:17;4.85;;;1.65;;
65998;SDS011;52766;56.008;37.440;2023-12-20T02:17:43;3.30;;;1.00;;
65998;SDS011;52766;56.008;37.440;2023-12-20T02:20:10;4.10;;;1.23;;
65998;SDS011;52766;56.008;37.440;2023-12-20T02:22:36;1.20;;;0.98;;
65998;SDS011;52766;56.008;37.440;2023-12-20T02:25:02;1.60;;;1.17;;
65998;SDS011;52766;56.008;37.440;2023-12-20T02:27:30;2.05;;;1.30;;
65998;SDS011;52766;56.008;37.440;2023-12-20T02:29:56;2.75;;;1.30;;
65998;SDS011;52766;56.008;37.440;2023-12-20T02:32:22;2.72;;;1.30;;
65998;SDS011;52766;56.008;37.440;2023-12-20T02:34:51;5.03;;;1.67;;
65998;SDS011;52766;56.008;37.440;2023-12-20T02:37:17;4.07;;;1.70;;
65998;SDS011;52766;56.008;37.440;2023-12-20T02:39:44;5.03;;;1.88;;
65998;SDS011;52766;56.008;37.440;2023-12-20T02:42:11;4.50;;;1.90;;
65998;SDS011;52766;56.008;37.440;2023-12-20T02:44:37;3.50;;;2.08;;
65998;SDS011;52766;56.008;37.440;2023-12-20T02:47:03;3.40;;;1.55;;
65998;SDS011;52766;56.008;37.440;2023-12-20T02:49:29;4.15;;;1.65;;
65998;SDS011;52766;56.008;37.440;2023-12-20T02:51:54;5.15;;;2.20;;
65998;SDS011;52766;56.008;37.440;2023-12-20T02:54:20;3.42;;;2.00;;
65998;SDS011;52766;56.008;37.440;2023-12-20T02:56:46;4.32;;;1.85;;
65998;SDS011;52766;56.008;37.440;2023-12-20T02:59:12;3.95;;;1.63;;
65998;SDS011;52766;56.008;37.440;2023-12-20T03:01:41;5.00;;;1.88;;
65998;SDS011;52766;56.008;37.440;2023-12-20T03:04:08;3.83;;;1.33;;
65998;SDS011;52766;56.008;37.440;2023-12-20T03:06:34;4.05;;;1.58;;
65998;SDS011;52766;56.008;37.440;2023-12-20T03:09:00;2.92;;;1.50;;
65998;SDS011;52766;56.008;37.440;2023-12-20T03:11:26;6.75;;;2.00;;
65998;SDS011;52766;56.008;37.440;2023-12-20T03:13:53;3.72;;;2.03;;
65998;SDS011;52766;56.008;37.440;2023-12-20T03:16:19;4.85;;;2.05;;
65998;SDS011;52766;56.008;37.440;2023-12-20T03:18:44;6.30;;;2.20;;
65998;SDS011;52766;56.008;37.440;2023-12-20T03:21:10;5.72;;;2.90;;
65998;SDS011;52766;56.008;37.440;2023-12-20T03:23:36;5.25;;;2.60;;
65998;SDS011;52766;56.008;37.440;2023-12-20T03:26:03;4.82;;;2.20;;
65998;SDS011;52766;56.008;37.440;2023-12-20T03:28:32;6.28;;;2.25;;
65998;SDS011;52766;56.008;37.440;2023-12-20T03:30:58;5.95;;;2.38;;
65998;SDS011;52766;56.008;37.440;2023-12-20T03:33:24;5.40;;;2.30;;
65998;SDS011;52766;56.008;37.440;2023-12-20T03:35:50;5.00;;;2.00;;
65998;SDS011;52766;56.008;37.440;2023-12-20T03:38:16;4.57;;;2.40;;
65998;SDS011;52766;56.008;37.440;2023-12-20T03:40:42;4.55;;;2.05;;
65998;SDS011;52766;56.008;37.440;2023-12-20T03:43:08;3.92;;;1.98;;
65998;SDS011;52766;56.008;37.440;2023-12-20T03:45:34;4.88;;;2.03;;
65998;SDS011;52766;56.008;37.440;2023-12-20T03:48:00;5.43;;;2.38;;
65998;SDS011;52766;56.008;37.440;2023-12-20T03:50:27;6.07;;;2.17;;
65998;SDS011;52766;56.008;37.440;2023-12-20T03:52:53;6.82;;;2.33;;
65998;SDS011;52766;56.008;37.440;2023-12-20T03:55:19;4.50;;;2.28;;
65998;SDS011;52766;56.008;37.440;2023-12-20T03:57:45;3.78;;;1.90;;
65998;SDS011;52766;56.008;37.440;2023-12-20T04:00:11;4.55;;;2.20;;
65998;SDS011;52766;56.008;37.440;2023-12-20T04:02:40;4.65;;;2.10;;
65998;SDS011;52766;56.008;37.440;2023-12-20T04:05:08;5.43;;;1.95;;
65998;SDS011;52766;56.008;37.440;2023-12-20T04:07:43;4.28;;;1.90;;
65998;SDS011;52766;56.008;37.440;2023-12-20T04:10:14;4.50;;;2.20;;
65998;SDS011;52766;56.008;37.440;2023-12-20T04:12:41;5.90;;;2.15;;
65998;SDS011;52766;56.008;37.440;2023-12-20T04:16:00;4.80;;;2.15;;
65998;SDS011;52766;56.008;37.440;2023-12-20T04:18:12;4.30;;;2.00;;
65998;SDS011;52766;56.008;37.440;2023-12-20T04:20:40;4.80;;;2.33;;
65998;SDS011;52766;56.008;37.440;2023-12-20T04:23:11;5.40;;;2.30;;
65998;SDS011;52766;56.008;37.440;2023-12-20T04:25:43;6.57;;;2.17;;
65998;SDS011;52766;56.008;37.440;2023-12-20T04:28:13;4.03;;;1.83;;
65998;SDS011;52766;56.008;37.440;2023-12-20T04:30:39;4.93;;;1.77;;
65998;SDS011;52766;56.008;37.440;2023-12-20T04:33:07;5.00;;;2.47;;
65998;SDS011;52766;56.008;37.440;2023-12-20T04:35:36;4.93;;;2.00;;
65998;SDS011;52766;56.008;37.440;2023-12-20T04:38:18;5.40;;;2.10;;
65998;SDS011;52766;56.008;37.440;2023-12-20T04:40:45;3.50;;;1.85;;
65998;SDS011;52766;56.008;37.440;2023-12-20T04:43:13;4.70;;;2.38;;
65998;SDS011;52766;56.008;37.440;2023-12-20T04:45:46;6.53;;;2.50;;
65998;SDS011;52766;56.008;37.440;2023-12-20T04:48:56;4.25;;;2.42;;
65998;SDS011;52766;56.008;37.440;2023-12-20T04:51:51;5.82;;;2.42;;
65998;SDS011;52766;56.008;37.440;2023-12-20T05:01:47;6.05;;;2.40;;
65998;SDS011;52766;56.008;37.440;2023-12-20T05:04:18;6.78;;;1.95;;
65998;SDS011;52766;56.008;37.440;2023-12-20T05:06:45;6.88;;;2.08;;
65998;SDS011;52766;56.008;37.440;2023-12-20T05:09:13;5.03;;;1.77;;
65998;SDS011;52766;56.008;37.440;2023-12-20T05:11:40;3.75;;;1.73;;
65998;SDS011;52766;56.008;37.440;2023-12-20T05:21:50;4.22;;;1.20;;
65998;SDS011;52766;56.008;37.440;2023-12-20T05:24:25;5.10;;;1.65;;
65998;SDS011;52766;56.008;37.440;2023-12-20T05:26:59;3.85;;;1.20;;
65998;SDS011;52766;56.008;37.440;2023-12-20T05:29:27;4.47;;;1.33;;
65998;SDS011;52766;56.008;37.440;2023-12-20T05:32:06;4.07;;;1.55;;
65998;SDS011;52766;56.008;37.440;2023-12-20T05:37:48;5.85;;;1.90;;
65998;SDS011;52766;56.008;37.440;2023-12-20T05:40:25;3.90;;;1.60;;
65998;SDS011;52766;56.008;37.440;2023-12-20T05:43:04;8.02;;;1.77;;
65998;SDS011;52766;56.008;37.440;2023-12-20T05:48:42;7.03;;;1.92;;
65998;SDS011;52766;56.008;37.440;2023-12-20T05:51:13;2.13;;;1.20;;
65998;SDS011;52766;56.008;37.440;2023-12-20T05:53:47;1.83;;;1.30;;
65998;SDS011;52766;56.008;37.440;2023-12-20T05:56:23;2.80;;;1.20;;
65998;SDS011;52766;56.008;37.440;2023-12-20T05:59:06;3.63;;;1.33;;
65998;SDS011;52766;56.008;37.440;2023-12-20T06:01:50;2.70;;;1.10;;
65998;SDS011;52766;56.008;37.440;2023-12-20T06:04:24;4.20;;;1.33;;
65998;SDS011;52766;56.008;37.440;2023-12-20T06:06:55;3.05;;;1.30;;
65998;SDS011;52766;56.008;37.440;2023-12-20T06:09:23;2.13;;;1.20;;
65998;SDS011;52766;56.008;37.440;2023-12-20T06:11:51;6.38;;;1.85;;
65998;SDS011;52766;56.008;37.440;2023-12-20T06:14:24;2.90;;;1.45;;
65998;SDS011;52766;56.008;37.440;2023-12-20T06:17:04;3.55;;;1.48;;
65998;SDS011;52766;56.008;37.440;2023-12-20T06:19:36;3.53;;;1.55;;
65998;SDS011;52766;56.008;37.440;2023-12-20T06:22:15;4.75;;;1.60;;
65998;SDS011;52766;56.008;37.440;2023-12-20T06:24:47;4.95;;;1.80;;
65998;SDS011;52766;56.008;37.440;2023-12-20T06:27:16;3.80;;;1.67;;
65998;SDS011;52766;56.008;37.440;2023-12-20T06:29:42;5.50;;;1.83;;
65998;SDS011;52766;56.008;37.440;2023-12-20T06:32:10;6.85;;;2.30;;
65998;SDS011;52766;56.008;37.440;2023-12-20T06:34:42;4.07;;;1.95;;
65998;SDS011;52766;56.008;37.440;2023-12-20T06:37:10;5.15;;;2.33;;
65998;SDS011;52766;56.008;37.440;2023-12-20T06:39:48;9.65;;;2.30;;
65998;SDS011;52766;56.008;37.440;2023-12-20T06:42:37;12.52;;;2.42;;
65998;SDS011;52766;56.008;37.440;2023-12-20T06:45:06;6.32;;;2.50;;
65998;SDS011;52766;56.008;37.440;2023-12-20T06:47:33;6.30;;;2.47;;
65998;SDS011;52766;56.008;37.440;2023-12-20T06:50:03;8.30;;;2.90;;
65998;SDS011;52766;56.008;37.440;2023-12-20T06:52:43;7.38;;;2.80;;
65998;SDS011;52766;56.008;37.440;2023-12-20T06:55:35;7.20;;;2.78;;
65998;SDS011;52766;56.008;37.440;2023-12-20T06:58:06;7.50;;;3.00;;
65998;SDS011;52766;56.008;37.440;2023-12-20T07:00:41;7.53;;;3.15;;
65998;SDS011;52766;56.008;37.440;2023-12-20T07:03:16;6.90;;;2.70;;
65998;SDS011;52766;56.008;37.440;2023-12-20T07:06:02;9.07;;;2.80;;
65998;SDS011;52766;56.008;37.440;2023-12-20T07:08:34;7.15;;;2.70;;
65998;SDS011;52766;56.008;37.440;2023-12-20T07:11:18;5.80;;;2.42;;
65998;SDS011;52766;56.008;37.440;2023-12-20T07:13:50;11.20;;;4.72;;
65998;SDS011;52766;56.008;37.440;2023-12-20T07:16:22;7.00;;;4.15;;
65998;SDS011;52766;56.008;37.440;2023-12-20T07:18:57;7.90;;;3.83;;
65998;SDS011;52766;56.008;37.440;2023-12-20T07:22:38;6.18;;;2.75;;
65998;SDS011;52766;56.008;37.440;2023-12-20T07:25:10;8.40;;;3.38;;
65998;SDS011;52766;56.008;37.440;2023-12-20T07:27:43;6.88;;;3.53;;
65998;SDS011;52766;56.008;37.440;2023-12-20T07:30:29;5.20;;;2.65;;
65998;SDS011;52766;56.008;37.440;2023-12-20T07:32:55;8.02;;;3.15;;
65998;SDS011;52766;56.008;37.440;2023-12-20T07:35:25;6.40;;;3.00;;
65998;SDS011;52766;56.008;37.440;2023-12-20T07:37:57;6.25;;;2.65;;
65998;SDS011;52766;56.008;37.440;2023-12-20T07:40:24;5.05;;;2.90;;
65998;SDS011;52766;56.008;37.440;2023-12-20T07:42:54;6.97;;;2.60;;
65998;SDS011;52766;56.008;37.440;2023-12-20T07:45:24;5.60;;;2.10;;
65998;SDS011;52766;56.008;37.440;2023-12-20T07:47:49;6.05;;;2.40;;
65998;SDS011;52766;56.008;37.440;2023-12-20T07:50:17;7.28;;;2.35;;
65998;SDS011;52766;56.008;37.440;2023-12-20T07:52:43;5.80;;;2.42;;
65998;SDS011;52766;56.008;37.440;2023-12-20T07:55:10;4.38;;;2.47;;
65998;SDS011;52766;56.008;37.440;2023-12-20T07:57:36;4.15;;;2.13;;
65998;SDS011;52766;56.008;37.440;2023-12-20T08:02:40;4.68;;;2.20;;
65998;SDS011;52766;56.008;37.440;2023-12-20T08:05:08;5.53;;;2.15;;
65998;SDS011;52766;56.008;37.440;2023-12-20T08:11:56;4.93;;;1.83;;
65998;SDS011;52766;56.008;37.440;2023-12-20T08:15:11;4.85;;;2.13;;
65998;SDS011;52766;56.008;37.440;2023-12-20T08:17:53;4.00;;;1.95;;
65998;SDS011;52766;56.008;37.440;2023-12-20T08:20:47;5.30;;;2.00;;
65998;SDS011;52766;56.008;37.440;2023-12-20T08:23:44;4.40;;;1.90;;
65998;SDS011;52766;56.008;37.440;2023-12-20T08:43:53;3.50;;;1.73;;
65998;SDS011;52766;56.008;37.440;2023-12-20T08:46:32;2.78;;;1.70;;
65998;SDS011;52766;56.008;37.440;2023-12-20T08:50:12;7.68;;;2.22;;
65998;SDS011;52766;56.008;37.440;2023-12-20T08:54:14;4.82;;;1.90;;
65998;SDS011;52766;56.008;37.440;2023-12-20T08:57:11;3.28;;;2.00;;
65998;SDS011;52766;56.008;37.440;2023-12-20T09:00:06;3.95;;;1.77;;
65998;SDS011;52766;56.008;37.440;2023-12-20T09:07:30;4.93;;;2.22;;
65998;SDS011;52766;56.008;37.440;2023-12-20T09:14:26;5.85;;;2.75;;
65998;SDS011;52766;56.008;37.440;2023-12-20T09:17:04;6.75;;;2.60;;
65998;SDS011;52766;56.008;37.440;2023-12-20T09:23:08;6.25;;;2.15;;
65998;SDS011;52766;56.008;37.440;2023-12-20T09:25:59;3.13;;;1.73;;
65998;SDS011;52766;56.008;37.440;2023-12-20T09:28:45;4.93;;;2.10;;
65998;SDS011;52766;56.008;37.440;2023-12-20T09:35:36;3.35;;;1.80;;
65998;SDS011;52766;56.008;37.440;2023-12-20T09:39:00;4.93;;;2.35;;
65998;SDS011;52766;56.008;37.440;2023-12-20T09:41:33;6.13;;;3.17;;
65998;SDS011;52766;56.008;37.440;2023-12-20T09:44:57;4.55;;;2.10;;
65998;SDS011;52766;56.008;37.440;2023-12-20T09:50:57;6.75;;;3.00;;
65998;SDS011;52766;56.008;37.440;2023-12-20T10:00:53;5.78;;;2.63;;
65998;SDS011;52766;56.008;37.440;2023-12-20T10:07:13;6.97;;;2.67;;
65998;SDS011;52766;56.008;37.440;2023-12-20T10:10:24;4.97;;;2.08;;
65998;SDS011;52766;56.008;37.440;2023-12-20T10:13:08;5.90;;;2.20;;
65998;SDS011;52766;56.008;37.440;2023-12-20T10:15:43;5.60;;;2.58;;
65998;SDS011;52766;56.008;37.440;2023-12-20T10:18:21;6.13;;;2.97;;
65998;SDS011;52766;56.008;37.440;2023-12-20T10:20:48;6.30;;;2.70;;
65998;SDS011;52766;56.008;37.440;2023-12-20T10:24:23;5.28;;;2.70;;
65998;SDS011;52766;56.008;37.440;2023-12-20T10:27:08;5.72;;;2.85;;
65998;SDS011;52766;56.008;37.440;2023-12-20T10:29:40;6.75;;;3.03;;
65998;SDS011;52766;56.008;37.440;2023-12-20T10:32:29;5.30;;;2.53;;
65998;SDS011;52766;56.008;37.440;2023-12-20T10:35:06;6.22;;;3.08;;
65998;SDS011;52766;56.008;37.440;2023-12-20T10:38:16;5.75;;;2.80;;
65998;SDS011;52766;56.008;37.440;2023-12-20T10:41:08;7.22;;;2.80;;
65998;SDS011;52766;56.008;37.440;2023-12-20T10:43:45;5.53;;;2.45;;
65998;SDS011;52766;56.008;37.440;2023-12-20T10:53:36;4.90;;;2.58;;
65998;SDS011;52766;56.008;37.440;2023-12-20T11:10:48;4.88;;;2.20;;
65998;SDS011;52766;56.008;37.440;2023-12-20T11:17:17;4.47;;;2.03;;
65998;SDS011;52766;56.008;37.440;2023-12-20T11:20:18;4.72;;;2.40;;
65998;SDS011;52766;56.008;37.440;2023-12-20T11:23:05;7.55;;;2.45;;
65998;SDS011;52766;56.008;37.440;2023-12-20T11:28:51;4.70;;;1.70;;
65998;SDS011;52766;56.008;37.440;2023-12-20T12:00:30;4.75;;;2.33;;
65998;SDS011;52766;56.008;37.440;2023-12-20T12:34:33;4.95;;;1.80;;
65998;SDS011;52766;56.008;37.440;2023-12-20T12:37:32;4.10;;;2.10;;
65998;SDS011;52766;56.008;37.440;2023-12-20T12:52:10;6.28;;;1.15;;
65998;SDS011;52766;56.008;37.440;2023-12-20T12:55:20;3.88;;;1.88;;
65998;SDS011;52766;56.008;37.440;2023-12-20T13:09:54;3.50;;;1.50;;
65998;SDS011;52766;56.008;37.440;2023-12-20T13:15:56;4.53;;;2.17;;
65998;SDS011;52766;56.008;37.440;2023-12-20T13:18:33;4.63;;;1.90;;
65998;SDS011;52766;56.008;37.440;2023-12-20T13:21:25;4.97;;;2.08;;
65998;SDS011;52766;56.008;37.440;2023-12-20T13:24:13;5.75;;;2.85;;
65998;SDS011;52766;56.008;37.440;2023-12-20T13:29:48;4.68;;;2.35;;
65998;SDS011;52766;56.008;37.440;2023-12-20T13:32:21;5.03;;;2.55;;
65998;SDS011;52766;56.008;37.440;2023-12-20T13:35:36;5.65;;;2.30;;
65998;SDS011;52766;56.008;37.440;2023-12-20T13:38:07;7.40;;;2.65;;
65998;SDS011;52766;56.008;37.440;2023-12-20T13:41:00;7.15;;;2.75;;
65998;SDS011;52766;56.008;37.440;2023-12-20T13:43:29;5.70;;;2.47;;
65998;SDS011;52766;56.008;37.440;2023-12-20T13:46:13;8.00;;;2.55;;
65998;SDS011;52766;56.008;37.440;2023-12-20T13:48:43;4.22;;;2.05;;
65998;SDS011;52766;56.008;37.440;2023-12-20T13:54:57;6.25;;;2.75;;
65998;SDS011;52766;56.008;37.440;2023-12-20T13:57:24;5.05;;;2.42;;
65998;SDS011;52766;56.008;37.440;2023-12-20T14:00:17;5.70;;;2.83;;
65998;SDS011;52766;56.008;37.440;2023-12-20T14:06:56;6.07;;;2.70;;
65998;SDS011;52766;56.008;37.440;2023-12-20T14:16:34;4.93;;;2.63;;
65998;SDS011;52766;56.008;37.440;2023-12-20T14:19:19;5.82;;;2.90;;
65998;SDS011;52766;56.008;37.440;2023-12-20T14:22:14;6.85;;;2.75;;
65998;SDS011;52766;56.008;37.440;2023-12-20T14:24:45;5.05;;;2.70;;
65998;SDS011;52766;56.008;37.440;2023-12-20T14:27:27;6.63;;;4.13;;
65998;SDS011;52766;56.008;37.440;2023-12-20T14:30:05;6.50;;;3.50;;
65998;SDS011;52766;56.008;37.440;2023-12-20T14:32:58;6.18;;;3.03;;
65998;SDS011;52766;56.008;37.440;2023-12-20T14:35:41;5.22;;;2.55;;
65998;SDS011;52766;56.008;37.440;2023-12-20T14:51:59;7.93;;;3.20;;
65998;SDS011;52766;56.008;37.440;2023-12-20T14:58:58;6.57;;;2.72;;
65998;SDS011;52766;56.008;37.440;2023-12-20T15:21:57;4.13;;;1.98;;
65998;SDS011;52766;56.008;37.440;2023-12-20T15:35:53;7.72;;;2.38;;
65998;SDS011;52766;56.008;37.440;2023-12-20T15:38:50;7.47;;;2.97;;
65998;SDS011;52766;56.008;37.440;2023-12-20T15:41:23;7.18;;;2.38;;
65998;SDS011;52766;56.008;37.440;2023-12-20T15:44:26;8.80;;;3.13;;
65998;SDS011;52766;56.008;37.440;2023-12-20T15:47:00;4.75;;;2.20;;
65998;SDS011;52766;56.008;37.440;2023-12-20T15:49:52;9.35;;;3.47;;
65998;SDS011;52766;56.008;37.440;2023-12-20T15:52:28;7.68;;;3.50;;
65998;SDS011;52766;56.008;37.440;2023-12-20T16:00:49;6.78;;;3.40;;
65998;SDS011;52766;56.008;37.440;2023-12-20T16:03:19;6.38;;;3.38;;
65998;SDS011;52766;56.008;37.440;2023-12-20T16:05:56;6.47;;;2.40;;
65998;SDS011;52766;56.008;37.440;2023-12-20T16:08:54;4.68;;;1.75;;
65998;SDS011;52766;56.008;37.440;2023-12-20T16:15:13;4.57;;;2.05;;
65998;SDS011;52766;56.008;37.440;2023-12-20T16:17:51;4.35;;;1.80;;
65998;SDS011;52766;56.008;37.440;2023-12-20T16:20:30;6.35;;;2.30;;
65998;SDS011;52766;56.008;37.440;2023-12-20T16:23:02;6.22;;;2.50;;
65998;SDS011;52766;56.008;37.440;2023-12-20T16:29:25;5.57;;;2.42;;
65998;SDS011;52766;56.008;37.440;2023-12-20T16:31:54;6.45;;;2.25;;
65998;SDS011;52766;56.008;37.440;2023-12-20T16:34:21;5.25;;;1.80;;
65998;SDS011;52766;56.008;37.440;2023-12-20T16:36:58;4.93;;;2.00;;
65998;SDS011;52766;56.008;37.440;2023-12-20T16:39:25;4.80;;;1.73;;
65998;SDS011;52766;56.008;37.440;2023-12-20T16:45:07;5.45;;;1.73;;
65998;SDS011;52766;56.008;37.440;2023-12-20T16:51:34;1.33;;;1.00;;
65998;SDS011;52766;56.008;37.440;2023-12-20T16:54:38;4.03;;;1.23;;
65998;SDS011;52766;56.008;37.440;2023-12-20T16:57:12;0.95;;;0.93;;
65998;SDS011;52766;56.008;37.440;2023-12-20T16:59:45;3.15;;;1.35;;
65998;SDS011;52766;56.008;37.440;2023-12-20T17:05:19;2.88;;;1.27;;
65998;SDS011;52766;56.008;37.440;2023-12-20T17:07:52;1.90;;;0.95;;
65998;SDS011;52766;56.008;37.440;2023-12-20T17:13:32;6.93;;;1.27;;
65998;SDS011;52766;56.008;37.440;2023-12-20T17:19:52;3.55;;;1.95;;
65998;SDS011;52766;56.008;37.440;2023-12-20T17:22:50;6.00;;;1.23;;
65998;SDS011;52766;56.008;37.440;2023-12-20T17:29:59;4.40;;;1.98;;
65998;SDS011;52766;56.008;37.440;2023-12-20T17:32:38;3.63;;;1.63;;
65998;SDS011;52766;56.008;37.440;2023-12-20T17:35:16;3.15;;;1.70;;
65998;SDS011;52766;56.008;37.440;2023-12-20T17:41:09;3.70;;;1.40;;
65998;SDS011;52766;56.008;37.440;2023-12-20T17:44:12;3.13;;;1.50;;
65998;SDS011;52766;56.008;37.440;2023-12-20T17:46:54;5.50;;;2.25;;
65998;SDS011;52766;56.008;37.440;2023-12-20T17:49:45;4.28;;;1.60;;
65998;SDS011;52766;56.008;37.440;2023-12-20T17:58:10;5.05;;;1.80;;
65998;SDS011;52766;56.008;37.440;2023-12-20T18:01:22;5.35;;;2.22;;
65998;SDS011;52766;56.008;37.440;2023-12-20T18:04:11;5.68;;;2.15;;
65998;SDS011;52766;56.008;37.440;2023-12-20T18:10:58;3.97;;;1.77;;
65998;SDS011;52766;56.008;37.440;2023-12-20T18:13:45;5.85;;;2.10;;
65998;SDS011;52766;56.008;37.440;2023-12-20T18:20:24;2.47;;;1.25;;
65998;SDS011;52766;56.008;37.440;2023-12-20T18:22:56;3.10;;;1.48;;
65998;SDS011;52766;56.008;37.440;2023-12-20T18:25:52;2.65;;;1.60;;
65998;SDS011;52766;56.008;37.440;2023-12-20T18:28:19;4.57;;;1.40;;
65998;SDS011;52766;56.008;37.440;2023-12-20T18:30:53;5.63;;;1.55;;
65998;SDS011;52766;56.008;37.440;2023-12-20T18:33:25;4.90;;;1.40;;
65998;SDS011;52766;56.008;37.440;2023-12-20T18:36:00;4.05;;;1.60;;
65998;SDS011;52766;56.008;37.440;2023-12-20T18:38:29;3.80;;;1.60;;
65998;SDS011;52766;56.008;37.440;2023-12-20T18:41:31;7.15;;;2.00;;
65998;SDS011;52766;56.008;37.440;2023-12-20T18:48:01;4.93;;;1.30;;
65998;SDS011;52766;56.008;37.440;2023-12-20T18:56:39;3.92;;;1.67;;
65998;SDS011;52766;56.008;37.440;2023-12-20T18:59:19;4.65;;;1.85;;
65998;SDS011;52766;56.008;37.440;2023-12-20T19:02:19;4.75;;;1.65;;
65998;SDS011;52766;56.008;37.440;2023-12-20T19:04:51;5.53;;;2.00;;
65998;SDS011;52766;56.008;37.440;2023-12-20T19:07:31;6.85;;;1.85;;
65998;SDS011;52766;56.008;37.440;2023-12-20T19:10:03;6.35;;;1.60;;
65998;SDS011;52766;56.008;37.440;2023-12-20T19:12:34;4.40;;;1.48;;
65998;SDS011;52766;56.008;37.440;2023-12-20T19:15:07;4.43;;;1.60;;
65998;SDS011;52766;56.008;37.440;2023-12-20T19:20:35;5.28;;;1.90;;
65998;SDS011;52766;56.008;37.440;2023-12-20T19:23:03;4.85;;;1.80;;
65998;SDS011;52766;56.008;37.440;2023-12-20T19:25:32;5.10;;;2.17;;
65998;SDS011;52766;56.008;37.440;2023-12-20T19:27:59;6.80;;;2.20;;
65998;SDS011;52766;56.008;37.440;2023-12-20T19:30:31;4.65;;;1.90;;
65998;SDS011;52766;56.008;37.440;2023-12-20T19:32:59;4.72;;;1.80;;
65998;SDS011;52766;56.008;37.440;2023-12-20T19:35:31;2.40;;;1.40;;
65998;SDS011;52766;56.008;37.440;2023-12-20T19:38:00;4.45;;;1.60;;
65998;SDS011;52766;56.008;37.440;2023-12-20T19:40:30;4.28;;;1.77;;
65998;SDS011;52766;56.008;37.440;2023-12-20T19:43:01;5.00;;;2.08;;
65998;SDS011;52766;56.008;37.440;2023-12-20T19:45:29;4.60;;;1.58;;
65998;SDS011;52766;56.008;37.440;2023-12-20T19:47:56;4.40;;;1.40;;
65998;SDS011;52766;56.008;37.440;2023-12-20T19:53:48;3.03;;;1.23;;
65998;SDS011;52766;56.008;37.440;2023-12-20T19:56:17;5.30;;;1.73;;
65998;SDS011;52766;56.008;37.440;2023-12-20T19:59:26;4.68;;;1.70;;
65998;SDS011;52766;56.008;37.440;2023-12-20T20:02:33;6.85;;;1.65;;
65998;SDS011;52766;56.008;37.440;2023-12-20T20:05:26;4.15;;;1.60;;
65998;SDS011;52766;56.008;37.440;2023-12-20T20:08:32;5.28;;;1.77;;
65998;SDS011;52766;56.008;37.440;2023-12-20T20:11:09;3.88;;;2.47;;
65998;SDS011;52766;56.008;37.440;2023-12-20T20:13:37;6.50;;;1.65;;
65998;SDS011;52766;56.008;37.440;2023-12-20T20:16:06;3.75;;;1.52;;
65998;SDS011;52766;56.008;37.440;2023-12-20T20:18:36;5.07;;;1.60;;
65998;SDS011;52766;56.008;37.440;2023-12-20T20:21:14;3.25;;;1.33;;
65998;SDS011;52766;56.008;37.440;2023-12-20T20:23:40;3.88;;;1.40;;
65998;SDS011;52766;56.008;37.440;2023-12-20T20:26:06;3.58;;;1.95;;
65998;SDS011;52766;56.008;37.440;2023-12-20T20:28:34;4.22;;;1.52;;
65998;SDS011;52766;56.008;37.440;2023-12-20T20:31:02;3.85;;;1.50;;
65998;SDS011;52766;56.008;37.440;2023-12-20T20:33:30;1.75;;;1.30;;
65998;SDS011;52766;56.008;37.440;2023-12-20T20:35:56;6.28;;;1.95;;
65998;SDS011;52766;56.008;37.440;2023-12-20T20:38:23;5.80;;;1.98;;
65998;SDS011;52766;56.008;37.440;2023-12-20T20:40:50;4.25;;;1.80;;
65998;SDS011;52766;56.008;37.440;2023-12-20T20:43:20;5.32;;;1.73;;
65998;SDS011;52766;56.008;37.440;2023-12-20T20:45:46;4.45;;;1.95;;
65998;SDS011;52766;56.008;37.440;2023-12-20T20:48:12;8.30;;;3.45;;
65998;SDS011;52766;56.008;37.440;2023-12-20T20:50:41;8.48;;;3.55;;